createdAt,value
2017-08-21T17:27:02.545Z,3.40
2017-08-21T17:29:30.219Z,3.73
2017-08-21T17:31:57.836Z,3.67
2017-08-21T17:34:25.853Z,3.13
2017-08-21T17:36:53.431Z,3.97
2017-08-21T17:39:21.103Z,3.50
2017-08-21T17:41:48.724Z,3.80
2017-08-21T17:44:32.564Z,3.00
2017-08-21T17:47:00.122Z,3.23
2017-08-21T17:49:27.735Z,3.47
2017-08-21T17:51:55.340Z,3.10
2017-08-21T17:54:22.957Z,3.33
2017-08-21T18:03:24.452Z,3.83
2017-08-21T18:05:52.083Z,3.57
2017-08-21T18:08:19.691Z,5.30
2017-08-21T18:10:47.292Z,4.77
2017-08-21T18:13:14.882Z,6.00
2017-08-21T18:15:42.484Z,5.47
2017-08-21T18:18:10.064Z,5.70
2017-08-21T18:20:37.667Z,4.47
2017-08-21T18:23:05.265Z,4.03
2017-08-21T18:25:32.871Z,4.53
2017-08-21T18:28:00.475Z,3.50
2017-08-21T18:30:28.091Z,4.07
2017-08-21T18:32:55.835Z,4.27
2017-08-21T18:35:23.534Z,4.70
2017-08-21T18:37:51.106Z,4.83
2017-08-21T18:40:18.702Z,4.17
2017-08-21T18:42:46.291Z,3.97
2017-08-21T18:45:13.883Z,4.97
2017-08-21T18:47:41.494Z,3.90
2017-08-21T18:50:09.063Z,4.53
2017-08-21T18:52:36.686Z,5.37
2017-08-21T18:55:04.248Z,5.50
2017-08-21T18:57:31.840Z,5.33
2017-08-21T18:59:59.462Z,5.20
2017-08-21T19:02:27.033Z,5.77
2017-08-21T19:04:54.645Z,5.90
2017-08-21T19:07:22.252Z,6.40
2017-08-21T19:09:49.835Z,5.87
2017-08-21T19:12:17.389Z,6.03
2017-08-21T19:14:44.998Z,5.20
2017-08-21T19:17:12.577Z,5.43
2017-08-21T19:19:40.162Z,5.93
2017-08-21T19:22:07.938Z,5.13
2017-08-21T19:24:35.527Z,5.67
2017-08-21T19:30:13.194Z,5.10
2017-08-21T19:32:40.788Z,6.10
2017-08-21T19:35:08.411Z,6.67
2017-08-21T19:37:35.985Z,5.97
2017-08-21T19:43:31.959Z,6.17
2017-08-21T19:45:59.589Z,6.13
2017-08-21T19:48:27.182Z,5.50
2017-08-21T19:50:54.794Z,6.77
2017-08-21T19:53:22.398Z,7.93
2017-08-21T19:55:49.967Z,7.00
2017-08-21T19:58:17.626Z,7.13
2017-08-21T20:00:45.199Z,6.63
2017-08-21T20:03:12.797Z,6.30
2017-08-21T20:05:40.529Z,7.00
2017-08-21T20:08:08.131Z,7.57
2017-08-21T20:10:35.712Z,7.33
2017-08-21T20:13:03.310Z,7.20
2017-08-21T20:15:30.912Z,6.80
2017-08-21T20:17:58.496Z,6.77
2017-08-21T20:20:26.063Z,7.00
2017-08-21T20:22:53.670Z,8.27
2017-08-21T20:25:21.320Z,7.80
2017-08-21T20:27:48.967Z,9.70
2017-08-21T20:30:16.526Z,7.63
2017-08-21T20:32:44.104Z,9.30
2017-08-21T20:35:11.899Z,7.33
2017-08-21T20:37:39.480Z,8.10
2017-08-21T20:40:07.108Z,7.20
2017-08-21T20:42:34.774Z,8.67
2017-08-21T20:45:02.390Z,7.37
2017-08-21T20:47:30.022Z,8.43
2017-08-21T20:49:57.612Z,8.73
2017-08-21T20:52:25.209Z,9.57
2017-08-21T20:54:52.803Z,9.60
2017-08-21T20:57:20.431Z,11.27
2017-08-21T20:59:48.017Z,9.73
2017-08-21T21:02:15.811Z,10.77
2017-08-21T21:04:43.451Z,9.60
2017-08-21T21:07:11.043Z,9.30
2017-08-21T21:09:38.671Z,9.53
2017-08-21T21:12:06.283Z,11.57
2017-08-21T21:14:33.888Z,10.10
2017-08-21T21:17:01.500Z,9.47
2017-08-21T21:19:29.089Z,10.80
2017-08-21T21:21:56.720Z,11.03
2017-08-21T21:24:24.303Z,10.60
2017-08-21T21:26:51.937Z,10.47
2017-08-21T21:29:19.563Z,11.97
2017-08-21T21:31:47.121Z,10.10
2017-08-21T21:34:14.714Z,12.27
2017-08-21T21:36:42.324Z,10.53
2017-08-21T21:39:09.886Z,11.20
2017-08-21T21:41:37.503Z,11.90
2017-08-21T21:44:05.098Z,11.20
2017-08-21T21:46:32.708Z,10.37
2017-08-21T21:49:00.299Z,9.80
2017-08-21T21:51:27.872Z,8.83
2017-08-21T21:53:55.487Z,9.77
2017-08-21T21:56:23.241Z,9.13
2017-08-21T21:58:50.942Z,9.40
2017-08-21T22:01:18.532Z,9.80
2017-08-21T22:03:46.127Z,9.50
2017-08-21T22:06:13.729Z,8.20
2017-08-21T22:08:41.458Z,8.20
2017-08-21T22:11:09.164Z,10.50
2017-08-21T22:13:36.744Z,8.93
2017-08-21T22:16:04.343Z,9.63
2017-08-21T22:18:31.928Z,9.83
2017-08-21T22:20:59.518Z,10.20
2017-08-21T22:23:27.123Z,10.70
2017-08-21T22:25:54.693Z,10.80
2017-08-21T22:28:22.553Z,9.97
2017-08-21T22:30:50.174Z,9.80
2017-08-21T22:33:17.788Z,11.20
2017-08-21T22:35:45.351Z,9.70
2017-08-21T22:38:12.961Z,11.27
2017-08-21T22:40:40.576Z,9.63
2017-08-21T22:43:08.163Z,10.73
2017-08-21T22:45:36.262Z,11.33
2017-08-21T22:48:03.880Z,10.03
2017-08-21T22:50:31.477Z,12.10
2017-08-21T22:52:59.087Z,10.40
2017-08-21T22:55:26.695Z,10.80
2017-08-21T22:57:54.636Z,10.17
2017-08-21T23:00:22.246Z,12.70
2017-08-21T23:02:49.859Z,12.63
2017-08-21T23:05:17.439Z,11.47
2017-08-21T23:07:45.039Z,13.23
2017-08-21T23:10:12.613Z,13.27
2017-08-21T23:12:40.375Z,13.43
2017-08-21T23:15:07.990Z,11.60
2017-08-21T23:17:35.611Z,14.13
2017-08-21T23:20:03.457Z,13.43
2017-08-21T23:22:31.067Z,12.40
2017-08-21T23:24:58.640Z,13.20
2017-08-21T23:27:26.207Z,14.87
2017-08-21T23:29:53.797Z,13.67
2017-08-21T23:32:21.463Z,13.30
2017-08-21T23:34:49.036Z,15.20
2017-08-21T23:37:16.666Z,14.60
2017-08-21T23:39:44.254Z,15.70
2017-08-21T23:42:11.845Z,14.70
2017-08-21T23:44:39.474Z,13.23
2017-08-21T23:47:07.056Z,15.67
2017-08-21T23:49:34.662Z,14.47
2017-08-21T23:52:02.275Z,12.70
2017-08-21T23:54:30.099Z,13.23
2017-08-21T23:56:57.708Z,13.20
2017-08-21T23:59:25.344Z,14.10
